sensor_id;sensor_type;location;lat;lon;timestamp;temperature;humidity
57566;DHT22;63999;43.882;-0.310;2023-07-09T00:02:11;25.60;80.30
57566;DHT22;63999;43.882;-0.310;2023-07-09T00:04:37;25.60;80.00
57566;DHT22;63999;43.882;-0.310;2023-07-09T00:07:04;25.60;79.60
57566;DHT22;63999;43.882;-0.310;2023-07-09T00:09:30;25.60;79.40
57566;DHT22;63999;43.882;-0.310;2023-07-09T00:11:57;25.60;79.50
57566;DHT22;63999;43.882;-0.310;2023-07-09T00:14:23;25.60;79.30
57566;DHT22;63999;43.882;-0.310;2023-07-09T00:16:49;25.50;79.10
57566;DHT22;63999;43.882;-0.310;2023-07-09T00:19:17;25.50;79.40
57566;DHT22;63999;43.882;-0.310;2023-07-09T00:21:45;25.50;79.30
57566;DHT22;63999;43.882;-0.310;2023-07-09T00:24:12;25.50;79.50
57566;DHT22;63999;43.882;-0.310;2023-07-09T00:26:38;25.50;79.20
57566;DHT22;63999;43.882;-0.310;2023-07-09T00:29:16;25.50;79.40
57566;DHT22;63999;43.882;-0.310;2023-07-09T00:31:42;25.50;79.20
57566;DHT22;63999;43.882;-0.310;2023-07-09T00:34:13;25.40;79.10
57566;DHT22;63999;43.882;-0.310;2023-07-09T00:36:40;25.40;79.10
57566;DHT22;63999;43.882;-0.310;2023-07-09T00:39:20;25.40;79.10
57566;DHT22;63999;43.882;-0.310;2023-07-09T00:41:46;25.40;79.20
57566;DHT22;63999;43.882;-0.310;2023-07-09T00:44:29;25.40;79.20
57566;DHT22;63999;43.882;-0.310;2023-07-09T00:49:40;25.40;79.20
57566;DHT22;63999;43.882;-0.310;2023-07-09T00:54:47;25.40;79.30
57566;DHT22;63999;43.882;-0.310;2023-07-09T00:57:16;25.40;79.40
57566;DHT22;63999;43.882;-0.310;2023-07-09T00:59:45;25.40;79.50
57566;DHT22;63999;43.882;-0.310;2023-07-09T01:02:12;25.40;79.40
57566;DHT22;63999;43.882;-0.310;2023-07-09T01:04:39;25.40;79.70
57566;DHT22;63999;43.882;-0.310;2023-07-09T01:07:05;25.40;79.80
57566;DHT22;63999;43.882;-0.310;2023-07-09T01:09:32;25.40;80.00
57566;DHT22;63999;43.882;-0.310;2023-07-09T01:12:04;25.40;79.80
57566;DHT22;63999;43.882;-0.310;2023-07-09T01:14:32;25.40;79.50
57566;DHT22;63999;43.882;-0.310;2023-07-09T01:17:03;25.40;79.40
57566;DHT22;63999;43.882;-0.310;2023-07-09T01:19:38;25.30;79.40
57566;DHT22;63999;43.882;-0.310;2023-07-09T01:22:12;25.40;79.30
57566;DHT22;63999;43.882;-0.310;2023-07-09T01:25:01;25.30;79.80
57566;DHT22;63999;43.882;-0.310;2023-07-09T01:27:37;25.30;79.70
57566;DHT22;63999;43.882;-0.310;2023-07-09T01:30:09;25.30;79.80
57566;DHT22;63999;43.882;-0.310;2023-07-09T01:32:37;25.30;79.90
57566;DHT22;63999;43.882;-0.310;2023-07-09T01:35:04;25.30;80.20
57566;DHT22;63999;43.882;-0.310;2023-07-09T01:37:36;25.30;79.80
57566;DHT22;63999;43.882;-0.310;2023-07-09T01:40:03;25.30;79.50
57566;DHT22;63999;43.882;-0.310;2023-07-09T01:42:31;25.30;79.50
57566;DHT22;63999;43.882;-0.310;2023-07-09T01:44:57;25.20;79.70
57566;DHT22;63999;43.882;-0.310;2023-07-09T01:47:24;25.30;79.50
57566;DHT22;63999;43.882;-0.310;2023-07-09T01:49:52;25.20;79.70
57566;DHT22;63999;43.882;-0.310;2023-07-09T01:52:27;25.20;80.10
57566;DHT22;63999;43.882;-0.310;2023-07-09T01:54:53;25.20;79.50
57566;DHT22;63999;43.882;-0.310;2023-07-09T01:57:21;25.20;79.50
57566;DHT22;63999;43.882;-0.310;2023-07-09T01:59:54;25.20;79.70
57566;DHT22;63999;43.882;-0.310;2023-07-09T02:02:21;25.20;79.70
57566;DHT22;63999;43.882;-0.310;2023-07-09T02:04:52;25.10;79.70
57566;DHT22;63999;43.882;-0.310;2023-07-09T02:07:20;25.10;80.00
57566;DHT22;63999;43.882;-0.310;2023-07-09T02:09:46;25.00;79.70
57566;DHT22;63999;43.882;-0.310;2023-07-09T02:12:12;25.00;79.60
57566;DHT22;63999;43.882;-0.310;2023-07-09T02:14:40;25.00;79.70
57566;DHT22;63999;43.882;-0.310;2023-07-09T02:17:06;25.00;79.30
57566;DHT22;63999;43.882;-0.310;2023-07-09T02:19:32;25.00;79.40
57566;DHT22;63999;43.882;-0.310;2023-07-09T02:21:58;25.00;79.20
57566;DHT22;63999;43.882;-0.310;2023-07-09T02:24:24;25.00;79.40
57566;DHT22;63999;43.882;-0.310;2023-07-09T02:26:51;25.00;79.20
57566;DHT22;63999;43.882;-0.310;2023-07-09T02:29:17;25.00;79.20
57566;DHT22;63999;43.882;-0.310;2023-07-09T02:31:44;25.00;79.20
57566;DHT22;63999;43.882;-0.310;2023-07-09T02:34:10;25.00;79.00
57566;DHT22;63999;43.882;-0.310;2023-07-09T02:36:35;24.90;79.20
57566;DHT22;63999;43.882;-0.310;2023-07-09T02:39:01;24.90;79.10
57566;DHT22;63999;43.882;-0.310;2023-07-09T02:41:27;24.90;79.00
57566;DHT22;63999;43.882;-0.310;2023-07-09T02:43:53;24.80;78.90
57566;DHT22;63999;43.882;-0.310;2023-07-09T02:46:19;24.80;79.10
57566;DHT22;63999;43.882;-0.310;2023-07-09T02:48:44;24.80;79.00
57566;DHT22;63999;43.882;-0.310;2023-07-09T02:51:10;24.80;79.00
57566;DHT22;63999;43.882;-0.310;2023-07-09T02:53:36;24.80;78.90
57566;DHT22;63999;43.882;-0.310;2023-07-09T02:56:01;24.80;79.00
57566;DHT22;63999;43.882;-0.310;2023-07-09T02:58:27;24.80;79.00
57566;DHT22;63999;43.882;-0.310;2023-07-09T03:00:53;24.80;78.90
57566;DHT22;63999;43.882;-0.310;2023-07-09T03:03:20;24.70;78.90
57566;DHT22;63999;43.882;-0.310;2023-07-09T03:05:46;24.70;79.00
57566;DHT22;63999;43.882;-0.310;2023-07-09T03:08:13;24.70;78.90
57566;DHT22;63999;43.882;-0.310;2023-07-09T03:10:38;24.70;78.70
57566;DHT22;63999;43.882;-0.310;2023-07-09T03:13:04;24.70;78.90
57566;DHT22;63999;43.882;-0.310;2023-07-09T03:15:31;24.60;78.70
57566;DHT22;63999;43.882;-0.310;2023-07-09T03:17:57;24.60;78.70
57566;DHT22;63999;43.882;-0.310;2023-07-09T03:20:23;24.60;78.80
57566;DHT22;63999;43.882;-0.310;2023-07-09T03:22:49;24.60;78.70
57566;DHT22;63999;43.882;-0.310;2023-07-09T03:25:14;24.60;78.70
57566;DHT22;63999;43.882;-0.310;2023-07-09T03:27:40;24.60;78.70
57566;DHT22;63999;43.882;-0.310;2023-07-09T03:30:06;24.50;78.40
57566;DHT22;63999;43.882;-0.310;2023-07-09T03:32:32;24.50;78.60
57566;DHT22;63999;43.882;-0.310;2023-07-09T03:34:58;24.50;78.70
57566;DHT22;63999;43.882;-0.310;2023-07-09T03:37:23;24.50;78.40
57566;DHT22;63999;43.882;-0.310;2023-07-09T03:39:49;24.40;78.40
57566;DHT22;63999;43.882;-0.310;2023-07-09T03:42:15;24.40;78.50
57566;DHT22;63999;43.882;-0.310;2023-07-09T03:44:40;24.40;78.40
57566;DHT22;63999;43.882;-0.310;2023-07-09T03:47:06;24.40;78.40
57566;DHT22;63999;43.882;-0.310;2023-07-09T03:49:33;24.40;78.30
57566;DHT22;63999;43.882;-0.310;2023-07-09T03:51:59;24.40;78.20
57566;DHT22;63999;43.882;-0.310;2023-07-09T03:54:25;24.40;78.30
57566;DHT22;63999;43.882;-0.310;2023-07-09T03:56:50;24.40;78.20
57566;DHT22;63999;43.882;-0.310;2023-07-09T03:59:16;24.30;78.20
57566;DHT22;63999;43.882;-0.310;2023-07-09T04:01:43;24.30;78.10
57566;DHT22;63999;43.882;-0.310;2023-07-09T04:04:14;24.30;78.10
57566;DHT22;63999;43.882;-0.310;2023-07-09T04:06:40;24.20;78.10
57566;DHT22;63999;43.882;-0.310;2023-07-09T04:09:06;24.20;78.20
57566;DHT22;63999;43.882;-0.310;2023-07-09T04:11:32;24.20;78.20
57566;DHT22;63999;43.882;-0.310;2023-07-09T04:13:58;24.20;78.00
57566;DHT22;63999;43.882;-0.310;2023-07-09T04:16:24;24.20;77.80
57566;DHT22;63999;43.882;-0.310;2023-07-09T04:18:50;24.20;78.20
57566;DHT22;63999;43.882;-0.310;2023-07-09T04:21:15;24.20;78.50
57566;DHT22;63999;43.882;-0.310;2023-07-09T04:23:41;24.20;77.90
57566;DHT22;63999;43.882;-0.310;2023-07-09T04:26:12;24.20;78.00
57566;DHT22;63999;43.882;-0.310;2023-07-09T04:28:38;24.10;78.20
57566;DHT22;63999;43.882;-0.310;2023-07-09T04:31:04;24.10;77.90
57566;DHT22;63999;43.882;-0.310;2023-07-09T04:33:29;24.00;78.00
57566;DHT22;63999;43.882;-0.310;2023-07-09T04:35:55;24.00;77.70
57566;DHT22;63999;43.882;-0.310;2023-07-09T04:38:21;24.00;78.00
57566;DHT22;63999;43.882;-0.310;2023-07-09T04:40:47;24.00;78.10
57566;DHT22;63999;43.882;-0.310;2023-07-09T04:43:13;24.00;77.70
57566;DHT22;63999;43.882;-0.310;2023-07-09T04:45:39;24.00;77.80
57566;DHT22;63999;43.882;-0.310;2023-07-09T04:48:05;24.00;77.90
57566;DHT22;63999;43.882;-0.310;2023-07-09T04:50:31;24.00;77.90
57566;DHT22;63999;43.882;-0.310;2023-07-09T04:52:57;23.90;77.70
57566;DHT22;63999;43.882;-0.310;2023-07-09T04:55:23;23.90;77.90
57566;DHT22;63999;43.882;-0.310;2023-07-09T04:57:49;23.90;77.80
57566;DHT22;63999;43.882;-0.310;2023-07-09T05:00:15;23.90;77.90
57566;DHT22;63999;43.882;-0.310;2023-07-09T05:02:41;23.90;77.70
57566;DHT22;63999;43.882;-0.310;2023-07-09T05:05:06;23.90;77.70
57566;DHT22;63999;43.882;-0.310;2023-07-09T05:07:32;23.90;77.80
57566;DHT22;63999;43.882;-0.310;2023-07-09T05:09:58;23.90;77.80
57566;DHT22;63999;43.882;-0.310;2023-07-09T05:12:27;23.90;77.80
57566;DHT22;63999;43.882;-0.310;2023-07-09T05:14:54;23.90;77.70
57566;DHT22;63999;43.882;-0.310;2023-07-09T05:17:22;23.90;77.70
57566;DHT22;63999;43.882;-0.310;2023-07-09T05:19:49;23.90;77.60
57566;DHT22;63999;43.882;-0.310;2023-07-09T05:22:15;23.90;77.70
57566;DHT22;63999;43.882;-0.310;2023-07-09T05:24:41;23.80;77.90
57566;DHT22;63999;43.882;-0.310;2023-07-09T05:27:07;23.80;77.70
57566;DHT22;63999;43.882;-0.310;2023-07-09T05:29:34;23.80;77.90
57566;DHT22;63999;43.882;-0.310;2023-07-09T05:32:00;23.80;78.10
57566;DHT22;63999;43.882;-0.310;2023-07-09T05:34:25;23.80;77.70
57566;DHT22;63999;43.882;-0.310;2023-07-09T05:36:51;23.90;77.80
57566;DHT22;63999;43.882;-0.310;2023-07-09T05:39:17;23.90;78.10
57566;DHT22;63999;43.882;-0.310;2023-07-09T05:41:43;23.90;78.00
57566;DHT22;63999;43.882;-0.310;2023-07-09T05:44:09;23.90;79.20
57566;DHT22;63999;43.882;-0.310;2023-07-09T05:46:36;24.00;78.10
57566;DHT22;63999;43.882;-0.310;2023-07-09T05:49:02;24.00;78.20
57566;DHT22;63999;43.882;-0.310;2023-07-09T05:51:28;23.90;79.00
57566;DHT22;63999;43.882;-0.310;2023-07-09T05:53:54;23.90;78.20
57566;DHT22;63999;43.882;-0.310;2023-07-09T05:56:21;23.90;79.60
57566;DHT22;63999;43.882;-0.310;2023-07-09T05:58:46;23.90;79.20
57566;DHT22;63999;43.882;-0.310;2023-07-09T06:01:13;23.90;78.70
57566;DHT22;63999;43.882;-0.310;2023-07-09T06:03:39;23.90;78.90
57566;DHT22;63999;43.882;-0.310;2023-07-09T06:06:05;23.90;79.60
57566;DHT22;63999;43.882;-0.310;2023-07-09T06:08:32;23.90;79.50
57566;DHT22;63999;43.882;-0.310;2023-07-09T06:11:00;23.90;78.70
57566;DHT22;63999;43.882;-0.310;2023-07-09T06:13:28;23.90;78.50
57566;DHT22;63999;43.882;-0.310;2023-07-09T06:15:56;23.90;78.30
57566;DHT22;63999;43.882;-0.310;2023-07-09T06:18:23;23.90;79.50
57566;DHT22;63999;43.882;-0.310;2023-07-09T06:20:51;23.90;79.40
57566;DHT22;63999;43.882;-0.310;2023-07-09T06:23:18;23.90;78.80
57566;DHT22;63999;43.882;-0.310;2023-07-09T06:25:45;23.90;79.70
57566;DHT22;63999;43.882;-0.310;2023-07-09T06:28:19;23.90;79.50
57566;DHT22;63999;43.882;-0.310;2023-07-09T06:30:45;23.90;79.40
57566;DHT22;63999;43.882;-0.310;2023-07-09T06:33:13;23.90;78.60
57566;DHT22;63999;43.882;-0.310;2023-07-09T06:35:39;23.80;79.00
57566;DHT22;63999;43.882;-0.310;2023-07-09T06:38:11;23.90;79.00
57566;DHT22;63999;43.882;-0.310;2023-07-09T06:40:36;23.90;79.60
57566;DHT22;63999;43.882;-0.310;2023-07-09T06:43:02;23.80;78.50
57566;DHT22;63999;43.882;-0.310;2023-07-09T06:45:28;23.80;78.60
57566;DHT22;63999;43.882;-0.310;2023-07-09T06:47:54;23.80;78.90
57566;DHT22;63999;43.882;-0.310;2023-07-09T06:50:20;23.80;78.30
57566;DHT22;63999;43.882;-0.310;2023-07-09T06:52:46;23.80;78.50
57566;DHT22;63999;43.882;-0.310;2023-07-09T06:55:12;23.80;78.80
57566;DHT22;63999;43.882;-0.310;2023-07-09T06:57:37;23.80;78.70
57566;DHT22;63999;43.882;-0.310;2023-07-09T07:00:04;23.80;79.70
57566;DHT22;63999;43.882;-0.310;2023-07-09T07:02:30;23.80;78.30
57566;DHT22;63999;43.882;-0.310;2023-07-09T07:04:55;23.80;79.40
57566;DHT22;63999;43.882;-0.310;2023-07-09T07:07:21;23.90;79.60
57566;DHT22;63999;43.882;-0.310;2023-07-09T07:09:47;23.90;78.40
57566;DHT22;63999;43.882;-0.310;2023-07-09T07:12:23;23.80;78.60
57566;DHT22;63999;43.882;-0.310;2023-07-09T07:14:50;23.80;78.30
57566;DHT22;63999;43.882;-0.310;2023-07-09T07:17:16;23.80;78.50
57566;DHT22;63999;43.882;-0.310;2023-07-09T07:19:42;23.80;79.10
57566;DHT22;63999;43.882;-0.310;2023-07-09T07:22:08;23.70;78.90
57566;DHT22;63999;43.882;-0.310;2023-07-09T07:24:34;23.80;78.60
57566;DHT22;63999;43.882;-0.310;2023-07-09T07:26:59;23.80;79.50
57566;DHT22;63999;43.882;-0.310;2023-07-09T07:29:25;23.80;78.60
57566;DHT22;63999;43.882;-0.310;2023-07-09T07:31:51;23.80;78.30
57566;DHT22;63999;43.882;-0.310;2023-07-09T07:34:16;23.80;78.30
57566;DHT22;63999;43.882;-0.310;2023-07-09T07:36:42;23.80;79.00
57566;DHT22;63999;43.882;-0.310;2023-07-09T07:39:08;23.80;78.80
57566;DHT22;63999;43.882;-0.310;2023-07-09T07:41:34;23.80;79.30
57566;DHT22;63999;43.882;-0.310;2023-07-09T07:43:59;23.80;78.50
57566;DHT22;63999;43.882;-0.310;2023-07-09T07:46:27;23.80;78.40
57566;DHT22;63999;43.882;-0.310;2023-07-09T07:48:54;23.80;78.50
57566;DHT22;63999;43.882;-0.310;2023-07-09T07:51:20;23.80;78.80
57566;DHT22;63999;43.882;-0.310;2023-07-09T07:53:47;23.80;78.40
57566;DHT22;63999;43.882;-0.310;2023-07-09T07:56:14;23.80;78.40
57566;DHT22;63999;43.882;-0.310;2023-07-09T07:58:40;23.70;79.60
57566;DHT22;63999;43.882;-0.310;2023-07-09T08:01:06;23.80;78.40
57566;DHT22;63999;43.882;-0.310;2023-07-09T08:03:32;23.80;79.50
57566;DHT22;63999;43.882;-0.310;2023-07-09T08:05:58;23.80;79.00
57566;DHT22;63999;43.882;-0.310;2023-07-09T08:08:23;23.80;79.10
57566;DHT22;63999;43.882;-0.310;2023-07-09T08:11:02;23.90;79.70
57566;DHT22;63999;43.882;-0.310;2023-07-09T08:13:31;23.90;78.80
57566;DHT22;63999;43.882;-0.310;2023-07-09T08:15:58;23.90;79.30
57566;DHT22;63999;43.882;-0.310;2023-07-09T08:18:24;23.90;79.30
57566;DHT22;63999;43.882;-0.310;2023-07-09T08:20:50;23.90;79.80
57566;DHT22;63999;43.882;-0.310;2023-07-09T08:23:15;24.00;79.70
57566;DHT22;63999;43.882;-0.310;2023-07-09T08:25:41;24.00;79.00
57566;DHT22;63999;43.882;-0.310;2023-07-09T08:28:07;24.00;79.00
57566;DHT22;63999;43.882;-0.310;2023-07-09T08:30:33;24.00;79.20
57566;DHT22;63999;43.882;-0.310;2023-07-09T08:32:59;24.00;80.00
57566;DHT22;63999;43.882;-0.310;2023-07-09T08:35:26;24.00;79.90
57566;DHT22;63999;43.882;-0.310;2023-07-09T08:37:51;24.10;79.80
57566;DHT22;63999;43.882;-0.310;2023-07-09T08:40:18;24.10;79.40
57566;DHT22;63999;43.882;-0.310;2023-07-09T08:42:46;24.20;79.60
57566;DHT22;63999;43.882;-0.310;2023-07-09T08:45:23;24.20;80.00
57566;DHT22;63999;43.882;-0.310;2023-07-09T08:50:38;24.20;80.10
57566;DHT22;63999;43.882;-0.310;2023-07-09T08:53:07;24.30;80.00
57566;DHT22;63999;43.882;-0.310;2023-07-09T08:55:34;24.30;80.00
57566;DHT22;63999;43.882;-0.310;2023-07-09T08:58:20;24.40;79.80
57566;DHT22;63999;43.882;-0.310;2023-07-09T09:00:57;24.40;80.20
57566;DHT22;63999;43.882;-0.310;2023-07-09T09:03:35;24.40;80.10
57566;DHT22;63999;43.882;-0.310;2023-07-09T09:06:17;24.40;80.10
57566;DHT22;63999;43.882;-0.310;2023-07-09T09:11:44;24.40;80.00
57566;DHT22;63999;43.882;-0.310;2023-07-09T09:14:41;24.40;80.10
57566;DHT22;63999;43.882;-0.310;2023-07-09T09:17:16;24.40;80.10
57566;DHT22;63999;43.882;-0.310;2023-07-09T09:19:57;24.40;80.20
57566;DHT22;63999;43.882;-0.310;2023-07-09T09:22:30;24.40;80.80
57566;DHT22;63999;43.882;-0.310;2023-07-09T09:27:37;24.50;80.40
57566;DHT22;63999;43.882;-0.310;2023-07-09T09:30:04;24.50;80.10
57566;DHT22;63999;43.882;-0.310;2023-07-09T09:32:43;24.50;80.50
57566;DHT22;63999;43.882;-0.310;2023-07-09T09:35:15;24.50;80.60
57566;DHT22;63999;43.882;-0.310;2023-07-09T09:37:49;24.60;80.50
57566;DHT22;63999;43.882;-0.310;2023-07-09T09:40:18;24.70;81.30
57566;DHT22;63999;43.882;-0.310;2023-07-09T09:42:47;24.70;80.20
57566;DHT22;63999;43.882;-0.310;2023-07-09T09:45:17;24.70;81.10
57566;DHT22;63999;43.882;-0.310;2023-07-09T09:47:46;24.80;80.00
57566;DHT22;63999;43.882;-0.310;2023-07-09T09:50:16;24.80;80.10
57566;DHT22;63999;43.882;-0.310;2023-07-09T09:52:43;24.70;80.90
57566;DHT22;63999;43.882;-0.310;2023-07-09T09:55:17;24.70;80.50
57566;DHT22;63999;43.882;-0.310;2023-07-09T09:57:48;24.80;81.80
57566;DHT22;63999;43.882;-0.310;2023-07-09T10:00:15;24.90;81.10
57566;DHT22;63999;43.882;-0.310;2023-07-09T10:02:42;25.00;80.40
57566;DHT22;63999;43.882;-0.310;2023-07-09T10:05:12;24.90;80.70
57566;DHT22;63999;43.882;-0.310;2023-07-09T10:07:44;25.00;80.80
57566;DHT22;63999;43.882;-0.310;2023-07-09T10:10:18;24.90;80.00
57566;DHT22;63999;43.882;-0.310;2023-07-09T10:12:53;24.90;80.70
57566;DHT22;63999;43.882;-0.310;2023-07-09T10:15:39;24.90;81.20
57566;DHT22;63999;43.882;-0.310;2023-07-09T10:31:35;25.20;80.60
57566;DHT22;63999;43.882;-0.310;2023-07-09T10:34:34;25.10;80.00
57566;DHT22;63999;43.882;-0.310;2023-07-09T10:39:36;25.00;80.30
57566;DHT22;63999;43.882;-0.310;2023-07-09T10:42:03;25.00;81.70
57566;DHT22;63999;43.882;-0.310;2023-07-09T10:44:35;25.20;80.60
57566;DHT22;63999;43.882;-0.310;2023-07-09T10:47:47;25.30;82.10
57566;DHT22;63999;43.882;-0.310;2023-07-09T10:49:48;25.40;81.00
57566;DHT22;63999;43.882;-0.310;2023-07-09T10:52:32;25.50;81.50
57566;DHT22;63999;43.882;-0.310;2023-07-09T10:55:17;25.40;79.30
57566;DHT22;63999;43.882;-0.310;2023-07-09T10:57:52;25.30;80.00
57566;DHT22;63999;43.882;-0.310;2023-07-09T11:00:21;25.30;81.10
57566;DHT22;63999;43.882;-0.310;2023-07-09T11:02:54;25.30;80.50
57566;DHT22;63999;43.882;-0.310;2023-07-09T11:05:23;25.30;80.20
57566;DHT22;63999;43.882;-0.310;2023-07-09T11:08:02;25.20;80.40
57566;DHT22;63999;43.882;-0.310;2023-07-09T11:13:41;25.20;80.30
57566;DHT22;63999;43.882;-0.310;2023-07-09T11:16:13;25.10;79.90
57566;DHT22;63999;43.882;-0.310;2023-07-09T11:18:40;25.20;80.40
57566;DHT22;63999;43.882;-0.310;2023-07-09T11:21:16;25.20;80.70
57566;DHT22;63999;43.882;-0.310;2023-07-09T11:23:50;25.30;81.80
57566;DHT22;63999;43.882;-0.310;2023-07-09T11:28:52;25.40;80.80
57566;DHT22;63999;43.882;-0.310;2023-07-09T11:34:10;25.40;81.80
57566;DHT22;63999;43.882;-0.310;2023-07-09T11:39:30;25.60;80.20
57566;DHT22;63999;43.882;-0.310;2023-07-09T11:41:58;25.60;81.20
57566;DHT22;63999;43.882;-0.310;2023-07-09T11:44:32;25.60;81.90
57566;DHT22;63999;43.882;-0.310;2023-07-09T11:49:59;25.60;81.10
57566;DHT22;63999;43.882;-0.310;2023-07-09T11:57:52;25.50;79.80
57566;DHT22;63999;43.882;-0.310;2023-07-09T12:00:18;25.60;80.30
57566;DHT22;63999;43.882;-0.310;2023-07-09T12:02:44;25.60;79.70
57566;DHT22;63999;43.882;-0.310;2023-07-09T12:05:10;25.50;82.10
57566;DHT22;63999;43.882;-0.310;2023-07-09T12:07:36;25.60;81.40
57566;DHT22;63999;43.882;-0.310;2023-07-09T12:10:04;25.70;80.30
57566;DHT22;63999;43.882;-0.310;2023-07-09T12:12:42;25.60;80.20
57566;DHT22;63999;43.882;-0.310;2023-07-09T12:15:23;25.70;82.30
57566;DHT22;63999;43.882;-0.310;2023-07-09T12:17:57;25.70;80.00
57566;DHT22;63999;43.882;-0.310;2023-07-09T12:20:24;25.70;80.30
57566;DHT22;63999;43.882;-0.310;2023-07-09T12:22:50;25.80;81.90
57566;DHT22;63999;43.882;-0.310;2023-07-09T12:25:22;25.80;82.00
57566;DHT22;63999;43.882;-0.310;2023-07-09T12:27:49;25.80;80.50
57566;DHT22;63999;43.882;-0.310;2023-07-09T12:30:14;26.00;81.90
57566;DHT22;63999;43.882;-0.310;2023-07-09T12:32:48;26.00;80.40
57566;DHT22;63999;43.882;-0.310;2023-07-09T12:35:20;26.00;79.90
57566;DHT22;63999;43.882;-0.310;2023-07-09T12:37:48;25.80;80.30
57566;DHT22;63999;43.882;-0.310;2023-07-09T12:40:20;25.80;81.10
57566;DHT22;63999;43.882;-0.310;2023-07-09T12:42:47;26.00;80.30
57566;DHT22;63999;43.882;-0.310;2023-07-09T12:45:18;25.90;80.90
57566;DHT22;63999;43.882;-0.310;2023-07-09T12:47:46;26.00;81.10
57566;DHT22;63999;43.882;-0.310;2023-07-09T12:52:48;26.10;81.60
57566;DHT22;63999;43.882;-0.310;2023-07-09T12:55:23;26.20;81.20
57566;DHT22;63999;43.882;-0.310;2023-07-09T12:57:49;26.10;80.20
57566;DHT22;63999;43.882;-0.310;2023-07-09T13:00:16;26.00;80.00
57566;DHT22;63999;43.882;-0.310;2023-07-09T13:02:43;26.00;81.40
57566;DHT22;63999;43.882;-0.310;2023-07-09T13:05:22;26.00;80.60
57566;DHT22;63999;43.882;-0.310;2023-07-09T13:08:11;26.00;81.00
57566;DHT22;63999;43.882;-0.310;2023-07-09T13:10:41;26.10;81.70
57566;DHT22;63999;43.882;-0.310;2023-07-09T13:13:13;26.20;80.40
57566;DHT22;63999;43.882;-0.310;2023-07-09T13:15:41;26.20;80.00
57566;DHT22;63999;43.882;-0.310;2023-07-09T13:18:13;26.10;79.60
57566;DHT22;63999;43.882;-0.310;2023-07-09T13:20:41;26.20;81.60
57566;DHT22;63999;43.882;-0.310;2023-07-09T13:23:16;26.20;80.20
57566;DHT22;63999;43.882;-0.310;2023-07-09T13:25:42;26.20;81.60
57566;DHT22;63999;43.882;-0.310;2023-07-09T13:28:19;26.30;80.70
57566;DHT22;63999;43.882;-0.310;2023-07-09T13:30:53;26.10;79.00
57566;DHT22;63999;43.882;-0.310;2023-07-09T13:33:19;26.00;79.80
57566;DHT22;63999;43.882;-0.310;2023-07-09T13:35:46;26.00;80.20
57566;DHT22;63999;43.882;-0.310;2023-07-09T13:38:16;26.00;80.20
57566;DHT22;63999;43.882;-0.310;2023-07-09T13:40:43;26.10;80.20
57566;DHT22;63999;43.882;-0.310;2023-07-09T13:43:25;26.10;80.70
57566;DHT22;63999;43.882;-0.310;2023-07-09T13:45:52;26.10;81.40
57566;DHT22;63999;43.882;-0.310;2023-07-09T13:48:19;26.10;80.70
57566;DHT22;63999;43.882;-0.310;2023-07-09T13:50:48;26.20;81.30
57566;DHT22;63999;43.882;-0.310;2023-07-09T13:53:17;26.20;80.50
57566;DHT22;63999;43.882;-0.310;2023-07-09T13:55:43;26.10;79.80
57566;DHT22;63999;43.882;-0.310;2023-07-09T13:58:11;26.20;80.60
57566;DHT22;63999;43.882;-0.310;2023-07-09T14:00:37;26.40;80.50
57566;DHT22;63999;43.882;-0.310;2023-07-09T14:03:25;26.40;80.50
57566;DHT22;63999;43.882;-0.310;2023-07-09T14:05:52;26.30;80.20
57566;DHT22;63999;43.882;-0.310;2023-07-09T14:08:18;26.40;81.50
57566;DHT22;63999;43.882;-0.310;2023-07-09T14:10:46;26.50;82.30
57566;DHT22;63999;43.882;-0.310;2023-07-09T14:13:18;26.50;80.50
57566;DHT22;63999;43.882;-0.310;2023-07-09T14:15:43;26.50;82.00
57566;DHT22;63999;43.882;-0.310;2023-07-09T14:18:15;26.60;81.40
57566;DHT22;63999;43.882;-0.310;2023-07-09T14:20:41;26.60;80.90
57566;DHT22;63999;43.882;-0.310;2023-07-09T14:23:11;26.60;80.00
57566;DHT22;63999;43.882;-0.310;2023-07-09T14:25:38;26.50;80.00
57566;DHT22;63999;43.882;-0.310;2023-07-09T14:28:07;26.50;81.00
57566;DHT22;63999;43.882;-0.310;2023-07-09T14:30:34;26.40;79.70
57566;DHT22;63999;43.882;-0.310;2023-07-09T14:33:00;26.40;81.90
57566;DHT22;63999;43.882;-0.310;2023-07-09T14:35:26;26.50;80.30
57566;DHT22;63999;43.882;-0.310;2023-07-09T14:37:53;26.60;81.60
57566;DHT22;63999;43.882;-0.310;2023-07-09T14:40:20;26.60;80.00
57566;DHT22;63999;43.882;-0.310;2023-07-09T14:42:48;26.50;80.10
57566;DHT22;63999;43.882;-0.310;2023-07-09T14:45:25;26.60;81.20
57566;DHT22;63999;43.882;-0.310;2023-07-09T14:47:52;26.60;80.70
57566;DHT22;63999;43.882;-0.310;2023-07-09T14:50:19;26.60;80.60
57566;DHT22;63999;43.882;-0.310;2023-07-09T14:52:48;26.60;81.50
57566;DHT22;63999;43.882;-0.310;2023-07-09T14:55:20;26.70;80.10
57566;DHT22;63999;43.882;-0.310;2023-07-09T14:57:46;26.60;80.20
57566;DHT22;63999;43.882;-0.310;2023-07-09T15:00:17;26.60;81.30
57566;DHT22;63999;43.882;-0.310;2023-07-09T15:02:44;26.80;81.30
57566;DHT22;63999;43.882;-0.310;2023-07-09T15:05:16;26.60;81.10
57566;DHT22;63999;43.882;-0.310;2023-07-09T15:07:42;26.70;80.60
57566;DHT22;63999;43.882;-0.310;2023-07-09T15:10:28;26.70;82.00
57566;DHT22;63999;43.882;-0.310;2023-07-09T15:12:54;26.80;81.60
57566;DHT22;63999;43.882;-0.310;2023-07-09T15:15:28;26.90;81.70
57566;DHT22;63999;43.882;-0.310;2023-07-09T15:18:00;26.90;80.90
57566;DHT22;63999;43.882;-0.310;2023-07-09T15:20:28;26.80;81.60
57566;DHT22;63999;43.882;-0.310;2023-07-09T15:22:56;26.90;81.60
57566;DHT22;63999;43.882;-0.310;2023-07-09T15:25:26;26.90;81.40
57566;DHT22;63999;43.882;-0.310;2023-07-09T15:27:52;26.80;81.40
57566;DHT22;63999;43.882;-0.310;2023-07-09T15:30:24;26.70;80.10
57566;DHT22;63999;43.882;-0.310;2023-07-09T15:32:50;26.70;80.10
57566;DHT22;63999;43.882;-0.310;2023-07-09T15:35:18;26.60;80.40
57566;DHT22;63999;43.882;-0.310;2023-07-09T15:37:45;26.70;81.30
57566;DHT22;63999;43.882;-0.310;2023-07-09T15:40:23;26.70;80.10
57566;DHT22;63999;43.882;-0.310;2023-07-09T15:42:52;26.80;81.60
57566;DHT22;63999;43.882;-0.310;2023-07-09T15:45:19;26.90;81.60
57566;DHT22;63999;43.882;-0.310;2023-07-09T15:47:45;27.00;80.50
57566;DHT22;63999;43.882;-0.310;2023-07-09T15:50:17;26.90;79.80
57566;DHT22;63999;43.882;-0.310;2023-07-09T15:52:44;26.90;80.50
57566;DHT22;63999;43.882;-0.310;2023-07-09T15:55:23;27.10;82.00
57566;DHT22;63999;43.882;-0.310;2023-07-09T15:57:52;27.10;81.20
57566;DHT22;63999;43.882;-0.310;2023-07-09T16:00:21;27.10;81.60
57566;DHT22;63999;43.882;-0.310;2023-07-09T16:02:48;27.10;81.60
57566;DHT22;63999;43.882;-0.310;2023-07-09T16:07:53;27.30;80.00
57566;DHT22;63999;43.882;-0.310;2023-07-09T16:10:20;27.20;81.20
57566;DHT22;63999;43.882;-0.310;2023-07-09T16:12:47;27.30;81.00
57566;DHT22;63999;43.882;-0.310;2023-07-09T16:15:16;27.20;79.60
57566;DHT22;63999;43.882;-0.310;2023-07-09T16:17:42;27.20;81.10
57566;DHT22;63999;43.882;-0.310;2023-07-09T16:20:13;27.30;80.50